Terminal Aerodrome Forecast
Issued by NWS Boston, MA

Home | Current Version | Previous Version | Text Only | Print | Product List | Glossary On
Versions: 1 2 3 4 5 6 7 8 9 10 11 12 13 14 15 16 17 18
000
FTUS41 KBOX 172328
TAFORH
TAF
KORH 172328Z 1800/1824 34003KT P6SM OVC006
     FM180200 30007KT P6SM BKN015
     FM180300 30008KT P6SM SCT015
     FM180400 30008KT P6SM SCT060
     FM181500 29010KT P6SM FEW250
     FM181900 30007KT P6SM SKC=

USA.gov is the U.S. government's official web portal to all federal, state and local government web resources and services.